sensor_id;sensor_type;location;lat;lon;timestamp;temperature;humidity
26262;DHT22;13988;52.446;13.280;2024-03-02T00:00:10;6.60;99.90
26262;DHT22;13988;52.446;13.280;2024-03-02T00:02:46;6.70;99.90
26262;DHT22;13988;52.446;13.280;2024-03-02T00:05:13;6.70;99.90
26262;DHT22;13988;52.446;13.280;2024-03-02T00:07:43;6.70;99.90
26262;DHT22;13988;52.446;13.280;2024-03-02T00:10:11;6.80;99.90
26262;DHT22;13988;52.446;13.280;2024-03-02T00:12:38;6.80;99.90
26262;DHT22;13988;52.446;13.280;2024-03-02T00:17:52;6.70;99.90
26262;DHT22;13988;52.446;13.280;2024-03-02T00:20:24;6.70;99.90
26262;DHT22;13988;52.446;13.280;2024-03-02T00:22:55;6.80;99.90
26262;DHT22;13988;52.446;13.280;2024-03-02T00:25:25;6.80;99.90
26262;DHT22;13988;52.446;13.280;2024-03-02T00:27:50;6.80;99.90
26262;DHT22;13988;52.446;13.280;2024-03-02T00:30:52;6.80;99.90
26262;DHT22;13988;52.446;13.280;2024-03-02T00:33:20;6.90;99.90
26262;DHT22;13988;52.446;13.280;2024-03-02T00:35:47;6.90;99.90
26262;DHT22;13988;52.446;13.280;2024-03-02T00:38:14;6.90;99.90
26262;DHT22;13988;52.446;13.280;2024-03-02T00:40:41;6.90;99.90
26262;DHT22;13988;52.446;13.280;2024-03-02T00:43:49;6.90;99.90
26262;DHT22;13988;52.446;13.280;2024-03-02T00:46:07;6.90;99.90
26262;DHT22;13988;52.446;13.280;2024-03-02T00:48:33;6.90;99.90
26262;DHT22;13988;52.446;13.280;2024-03-02T00:51:02;6.90;99.90
26262;DHT22;13988;52.446;13.280;2024-03-02T00:53:29;6.90;99.90
26262;DHT22;13988;52.446;13.280;2024-03-02T00:55:55;6.90;99.90
26262;DHT22;13988;52.446;13.280;2024-03-02T00:58:21;6.90;99.90
26262;DHT22;13988;52.446;13.280;2024-03-02T01:00:47;7.00;99.90
26262;DHT22;13988;52.446;13.280;2024-03-02T01:03:12;6.90;99.90
26262;DHT22;13988;52.446;13.280;2024-03-02T01:05:42;7.00;99.90
26262;DHT22;13988;52.446;13.280;2024-03-02T01:08:09;7.00;99.90
26262;DHT22;13988;52.446;13.280;2024-03-02T01:10:34;7.00;99.90
26262;DHT22;13988;52.446;13.280;2024-03-02T01:13:00;7.00;99.90
26262;DHT22;13988;52.446;13.280;2024-03-02T01:15:26;7.00;99.90
26262;DHT22;13988;52.446;13.280;2024-03-02T01:17:51;7.00;99.90
26262;DHT22;13988;52.446;13.280;2024-03-02T01:20:17;7.00;99.90
26262;DHT22;13988;52.446;13.280;2024-03-02T01:22:43;7.00;99.90
26262;DHT22;13988;52.446;13.280;2024-03-02T01:25:09;7.00;99.90
26262;DHT22;13988;52.446;13.280;2024-03-02T01:27:34;7.00;99.90
26262;DHT22;13988;52.446;13.280;2024-03-02T01:30:00;7.00;99.90
26262;DHT22;13988;52.446;13.280;2024-03-02T01:32:26;7.10;99.90
26262;DHT22;13988;52.446;13.280;2024-03-02T01:34:52;7.10;99.90
26262;DHT22;13988;52.446;13.280;2024-03-02T01:37:17;7.10;99.90
26262;DHT22;13988;52.446;13.280;2024-03-02T01:39:43;7.20;99.90
26262;DHT22;13988;52.446;13.280;2024-03-02T01:42:09;7.20;99.90
26262;DHT22;13988;52.446;13.280;2024-03-02T01:44:36;7.20;99.90
26262;DHT22;13988;52.446;13.280;2024-03-02T01:47:02;7.10;99.90
26262;DHT22;13988;52.446;13.280;2024-03-02T01:49:27;7.10;99.90
26262;DHT22;13988;52.446;13.280;2024-03-02T01:51:53;7.20;99.90
26262;DHT22;13988;52.446;13.280;2024-03-02T01:54:19;7.30;99.90
26262;DHT22;13988;52.446;13.280;2024-03-02T01:56:44;7.30;99.90
26262;DHT22;13988;52.446;13.280;2024-03-02T01:59:10;7.30;99.90
26262;DHT22;13988;52.446;13.280;2024-03-02T02:01:36;7.30;99.90
26262;DHT22;13988;52.446;13.280;2024-03-02T02:04:02;7.20;99.90
26262;DHT22;13988;52.446;13.280;2024-03-02T02:06:28;7.30;99.90
26262;DHT22;13988;52.446;13.280;2024-03-02T02:08:53;7.30;99.90
26262;DHT22;13988;52.446;13.280;2024-03-02T02:11:19;7.30;99.90
26262;DHT22;13988;52.446;13.280;2024-03-02T02:13:44;7.30;99.90
26262;DHT22;13988;52.446;13.280;2024-03-02T02:16:10;7.30;99.90
26262;DHT22;13988;52.446;13.280;2024-03-02T02:18:36;7.40;99.90
26262;DHT22;13988;52.446;13.280;2024-03-02T02:21:02;7.30;99.90
26262;DHT22;13988;52.446;13.280;2024-03-02T02:23:29;7.30;99.90
26262;DHT22;13988;52.446;13.280;2024-03-02T02:25:54;7.20;99.90
26262;DHT22;13988;52.446;13.280;2024-03-02T02:28:20;7.10;99.90
26262;DHT22;13988;52.446;13.280;2024-03-02T02:30:46;7.20;99.90
26262;DHT22;13988;52.446;13.280;2024-03-02T02:33:11;7.20;99.90
26262;DHT22;13988;52.446;13.280;2024-03-02T02:35:37;7.20;99.90
26262;DHT22;13988;52.446;13.280;2024-03-02T02:38:03;7.20;99.90
26262;DHT22;13988;52.446;13.280;2024-03-02T02:40:29;7.30;99.90
26262;DHT22;13988;52.446;13.280;2024-03-02T02:42:58;7.40;99.90
26262;DHT22;13988;52.446;13.280;2024-03-02T02:45:27;7.50;99.90
26262;DHT22;13988;52.446;13.280;2024-03-02T02:47:52;7.60;99.90
26262;DHT22;13988;52.446;13.280;2024-03-02T02:50:18;7.60;99.90
26262;DHT22;13988;52.446;13.280;2024-03-02T02:52:44;7.60;99.90
26262;DHT22;13988;52.446;13.280;2024-03-02T02:55:12;7.60;99.90
26262;DHT22;13988;52.446;13.280;2024-03-02T02:57:39;7.70;99.90
26262;DHT22;13988;52.446;13.280;2024-03-02T03:00:08;7.70;99.90
26262;DHT22;13988;52.446;13.280;2024-03-02T03:02:40;7.80;99.90
26262;DHT22;13988;52.446;13.280;2024-03-02T03:05:10;7.80;99.90
26262;DHT22;13988;52.446;13.280;2024-03-02T03:07:37;7.80;99.90
26262;DHT22;13988;52.446;13.280;2024-03-02T03:10:05;7.80;99.90
26262;DHT22;13988;52.446;13.280;2024-03-02T03:12:32;7.80;99.90
26262;DHT22;13988;52.446;13.280;2024-03-02T03:14:58;7.90;99.90
26262;DHT22;13988;52.446;13.280;2024-03-02T03:17:24;7.90;99.90
26262;DHT22;13988;52.446;13.280;2024-03-02T03:19:50;7.90;99.90
26262;DHT22;13988;52.446;13.280;2024-03-02T03:22:16;7.90;99.90
26262;DHT22;13988;52.446;13.280;2024-03-02T03:24:42;8.00;99.90
26262;DHT22;13988;52.446;13.280;2024-03-02T03:27:07;8.10;99.90
26262;DHT22;13988;52.446;13.280;2024-03-02T03:29:33;8.00;99.90
26262;DHT22;13988;52.446;13.280;2024-03-02T03:31:59;8.00;99.90
26262;DHT22;13988;52.446;13.280;2024-03-02T03:34:24;8.10;99.90
26262;DHT22;13988;52.446;13.280;2024-03-02T03:36:50;8.10;99.90
26262;DHT22;13988;52.446;13.280;2024-03-02T03:39:15;8.20;99.90
26262;DHT22;13988;52.446;13.280;2024-03-02T03:41:41;8.10;99.90
26262;DHT22;13988;52.446;13.280;2024-03-02T03:44:07;8.10;99.90
26262;DHT22;13988;52.446;13.280;2024-03-02T03:46:32;8.10;99.90
26262;DHT22;13988;52.446;13.280;2024-03-02T03:48:58;8.10;99.90
26262;DHT22;13988;52.446;13.280;2024-03-02T03:51:24;8.10;99.90
26262;DHT22;13988;52.446;13.280;2024-03-02T03:53:49;8.10;99.90
26262;DHT22;13988;52.446;13.280;2024-03-02T03:56:15;8.10;99.90
26262;DHT22;13988;52.446;13.280;2024-03-02T03:58:41;8.00;99.90
26262;DHT22;13988;52.446;13.280;2024-03-02T04:01:07;8.00;99.90
26262;DHT22;13988;52.446;13.280;2024-03-02T04:03:33;8.00;99.90
26262;DHT22;13988;52.446;13.280;2024-03-02T04:05:58;8.10;99.90
26262;DHT22;13988;52.446;13.280;2024-03-02T04:08:24;8.00;99.90
26262;DHT22;13988;52.446;13.280;2024-03-02T04:10:50;8.00;99.90
26262;DHT22;13988;52.446;13.280;2024-03-02T04:13:15;8.00;99.90
26262;DHT22;13988;52.446;13.280;2024-03-02T04:15:41;8.00;99.90
26262;DHT22;13988;52.446;13.280;2024-03-02T04:18:07;8.00;99.90
26262;DHT22;13988;52.446;13.280;2024-03-02T04:20:32;8.00;99.90
26262;DHT22;13988;52.446;13.280;2024-03-02T04:22:58;8.00;99.90
26262;DHT22;13988;52.446;13.280;2024-03-02T04:25:23;8.10;99.90
26262;DHT22;13988;52.446;13.280;2024-03-02T04:27:49;8.00;99.90
26262;DHT22;13988;52.446;13.280;2024-03-02T04:30:15;8.00;99.90
26262;DHT22;13988;52.446;13.280;2024-03-02T04:32:40;8.00;99.90
26262;DHT22;13988;52.446;13.280;2024-03-02T04:35:06;8.00;99.90
26262;DHT22;13988;52.446;13.280;2024-03-02T04:37:35;8.00;99.90
26262;DHT22;13988;52.446;13.280;2024-03-02T04:40:01;8.10;99.90
26262;DHT22;13988;52.446;13.280;2024-03-02T04:42:26;8.00;99.90
26262;DHT22;13988;52.446;13.280;2024-03-02T04:44:52;8.00;99.90
26262;DHT22;13988;52.446;13.280;2024-03-02T04:47:18;8.00;99.90
26262;DHT22;13988;52.446;13.280;2024-03-02T04:49:43;8.00;99.90
26262;DHT22;13988;52.446;13.280;2024-03-02T04:52:09;8.00;99.90
26262;DHT22;13988;52.446;13.280;2024-03-02T04:54:35;8.00;99.90
26262;DHT22;13988;52.446;13.280;2024-03-02T04:57:23;8.00;99.90
26262;DHT22;13988;52.446;13.280;2024-03-02T04:59:49;8.00;99.90
26262;DHT22;13988;52.446;13.280;2024-03-02T05:02:14;8.00;99.90
26262;DHT22;13988;52.446;13.280;2024-03-02T05:04:40;7.90;99.90
26262;DHT22;13988;52.446;13.280;2024-03-02T05:07:07;7.90;99.90
26262;DHT22;13988;52.446;13.280;2024-03-02T05:09:33;8.00;99.90
26262;DHT22;13988;52.446;13.280;2024-03-02T05:11:58;7.90;99.90
26262;DHT22;13988;52.446;13.280;2024-03-02T05:14:36;7.90;99.90
26262;DHT22;13988;52.446;13.280;2024-03-02T05:17:03;7.90;99.90
26262;DHT22;13988;52.446;13.280;2024-03-02T05:19:28;7.90;99.90
26262;DHT22;13988;52.446;13.280;2024-03-02T05:21:54;8.00;99.90
26262;DHT22;13988;52.446;13.280;2024-03-02T05:24:20;8.00;99.90
26262;DHT22;13988;52.446;13.280;2024-03-02T05:26:45;8.00;99.90
26262;DHT22;13988;52.446;13.280;2024-03-02T05:29:11;8.00;99.90
26262;DHT22;13988;52.446;13.280;2024-03-02T05:31:36;8.00;99.90
26262;DHT22;13988;52.446;13.280;2024-03-02T05:34:02;8.00;99.90
26262;DHT22;13988;52.446;13.280;2024-03-02T05:36:28;7.90;99.90
26262;DHT22;13988;52.446;13.280;2024-03-02T05:38:53;8.00;99.90
26262;DHT22;13988;52.446;13.280;2024-03-02T05:41:19;8.00;99.90
26262;DHT22;13988;52.446;13.280;2024-03-02T05:43:44;7.90;99.90
26262;DHT22;13988;52.446;13.280;2024-03-02T05:46:10;7.90;99.90
26262;DHT22;13988;52.446;13.280;2024-03-02T05:48:36;8.00;99.90
26262;DHT22;13988;52.446;13.280;2024-03-02T05:51:01;8.00;99.90
26262;DHT22;13988;52.446;13.280;2024-03-02T05:53:27;7.90;99.90
26262;DHT22;13988;52.446;13.280;2024-03-02T05:55:52;7.90;99.90
26262;DHT22;13988;52.446;13.280;2024-03-02T05:58:21;7.90;99.90
26262;DHT22;13988;52.446;13.280;2024-03-02T06:00:53;7.90;99.90
26262;DHT22;13988;52.446;13.280;2024-03-02T06:03:19;7.90;99.90
26262;DHT22;13988;52.446;13.280;2024-03-02T06:05:45;7.90;99.90
26262;DHT22;13988;52.446;13.280;2024-03-02T06:08:11;7.90;99.90
26262;DHT22;13988;52.446;13.280;2024-03-02T06:10:36;7.90;99.90
26262;DHT22;13988;52.446;13.280;2024-03-02T06:13:02;7.90;99.90
26262;DHT22;13988;52.446;13.280;2024-03-02T06:15:28;7.90;99.90
26262;DHT22;13988;52.446;13.280;2024-03-02T06:17:53;7.80;99.90
26262;DHT22;13988;52.446;13.280;2024-03-02T06:20:19;7.80;99.90
26262;DHT22;13988;52.446;13.280;2024-03-02T06:22:44;7.80;99.90
26262;DHT22;13988;52.446;13.280;2024-03-02T06:25:10;7.80;99.90
26262;DHT22;13988;52.446;13.280;2024-03-02T06:27:36;7.90;99.90
26262;DHT22;13988;52.446;13.280;2024-03-02T06:30:01;7.90;99.90
26262;DHT22;13988;52.446;13.280;2024-03-02T06:32:29;7.90;99.90
26262;DHT22;13988;52.446;13.280;2024-03-02T06:34:55;7.90;99.90
26262;DHT22;13988;52.446;13.280;2024-03-02T06:37:20;7.90;99.90
26262;DHT22;13988;52.446;13.280;2024-03-02T06:39:46;8.00;99.90
26262;DHT22;13988;52.446;13.280;2024-03-02T06:42:12;8.00;99.90
26262;DHT22;13988;52.446;13.280;2024-03-02T06:44:37;8.00;99.90
26262;DHT22;13988;52.446;13.280;2024-03-02T06:47:03;8.00;99.90
26262;DHT22;13988;52.446;13.280;2024-03-02T06:49:29;8.00;99.90
26262;DHT22;13988;52.446;13.280;2024-03-02T06:51:55;8.00;99.90
26262;DHT22;13988;52.446;13.280;2024-03-02T06:54:21;8.00;99.90
26262;DHT22;13988;52.446;13.280;2024-03-02T06:56:46;8.00;99.90
26262;DHT22;13988;52.446;13.280;2024-03-02T06:59:12;8.00;99.90
26262;DHT22;13988;52.446;13.280;2024-03-02T07:01:38;8.00;99.90
26262;DHT22;13988;52.446;13.280;2024-03-02T07:04:03;8.00;99.90
26262;DHT22;13988;52.446;13.280;2024-03-02T07:06:31;8.10;99.90
26262;DHT22;13988;52.446;13.280;2024-03-02T07:08:57;8.20;99.90
26262;DHT22;13988;52.446;13.280;2024-03-02T07:11:23;8.10;99.90
26262;DHT22;13988;52.446;13.280;2024-03-02T07:13:48;8.20;99.90
26262;DHT22;13988;52.446;13.280;2024-03-02T07:16:14;8.20;99.90
26262;DHT22;13988;52.446;13.280;2024-03-02T07:18:58;8.20;99.90
26262;DHT22;13988;52.446;13.280;2024-03-02T07:21:24;8.10;99.90
26262;DHT22;13988;52.446;13.280;2024-03-02T07:23:50;8.20;99.90
26262;DHT22;13988;52.446;13.280;2024-03-02T07:26:16;8.20;99.90
26262;DHT22;13988;52.446;13.280;2024-03-02T07:28:44;8.10;99.90
26262;DHT22;13988;52.446;13.280;2024-03-02T07:31:10;8.20;99.90
26262;DHT22;13988;52.446;13.280;2024-03-02T07:33:36;8.20;99.90
26262;DHT22;13988;52.446;13.280;2024-03-02T07:36:01;8.20;99.90
26262;DHT22;13988;52.446;13.280;2024-03-02T07:38:28;8.20;99.90
26262;DHT22;13988;52.446;13.280;2024-03-02T07:40:54;8.20;99.90
26262;DHT22;13988;52.446;13.280;2024-03-02T07:43:20;8.20;99.90
26262;DHT22;13988;52.446;13.280;2024-03-02T07:45:47;8.20;99.90
26262;DHT22;13988;52.446;13.280;2024-03-02T07:48:12;8.20;99.90
26262;DHT22;13988;52.446;13.280;2024-03-02T07:50:38;8.20;99.90
26262;DHT22;13988;52.446;13.280;2024-03-02T07:53:05;8.20;99.90
26262;DHT22;13988;52.446;13.280;2024-03-02T07:55:31;8.30;99.90
26262;DHT22;13988;52.446;13.280;2024-03-02T07:57:57;8.30;99.90
26262;DHT22;13988;52.446;13.280;2024-03-02T08:00:23;8.30;99.90
26262;DHT22;13988;52.446;13.280;2024-03-02T08:02:50;8.30;99.90
26262;DHT22;13988;52.446;13.280;2024-03-02T08:05:16;8.30;99.90
26262;DHT22;13988;52.446;13.280;2024-03-02T08:07:45;8.40;99.90
26262;DHT22;13988;52.446;13.280;2024-03-02T08:10:11;8.40;99.90
26262;DHT22;13988;52.446;13.280;2024-03-02T08:12:36;8.40;99.90
26262;DHT22;13988;52.446;13.280;2024-03-02T08:15:02;8.50;99.90
26262;DHT22;13988;52.446;13.280;2024-03-02T08:17:28;8.50;99.90
26262;DHT22;13988;52.446;13.280;2024-03-02T08:19:54;8.50;99.90
26262;DHT22;13988;52.446;13.280;2024-03-02T08:22:20;8.50;99.90
26262;DHT22;13988;52.446;13.280;2024-03-02T08:24:45;8.50;99.90
26262;DHT22;13988;52.446;13.280;2024-03-02T08:27:11;8.60;99.90
26262;DHT22;13988;52.446;13.280;2024-03-02T08:29:37;8.60;99.90
26262;DHT22;13988;52.446;13.280;2024-03-02T08:32:04;8.60;99.90
26262;DHT22;13988;52.446;13.280;2024-03-02T08:34:30;8.60;99.90
26262;DHT22;13988;52.446;13.280;2024-03-02T08:36:55;8.70;99.90
26262;DHT22;13988;52.446;13.280;2024-03-02T08:39:21;8.70;99.90
26262;DHT22;13988;52.446;13.280;2024-03-02T08:41:47;8.70;99.90
26262;DHT22;13988;52.446;13.280;2024-03-02T08:44:13;8.70;99.90
26262;DHT22;13988;52.446;13.280;2024-03-02T08:46:39;8.70;99.90
26262;DHT22;13988;52.446;13.280;2024-03-02T08:49:06;8.60;99.90
26262;DHT22;13988;52.446;13.280;2024-03-02T08:51:32;8.70;99.90
26262;DHT22;13988;52.446;13.280;2024-03-02T08:53:58;8.70;99.90
26262;DHT22;13988;52.446;13.280;2024-03-02T08:56:24;8.70;99.90
26262;DHT22;13988;52.446;13.280;2024-03-02T08:58:51;8.70;99.90
26262;DHT22;13988;52.446;13.280;2024-03-02T09:01:17;8.60;99.90
26262;DHT22;13988;52.446;13.280;2024-03-02T09:03:43;8.70;99.90
26262;DHT22;13988;52.446;13.280;2024-03-02T09:06:12;8.70;99.90
26262;DHT22;13988;52.446;13.280;2024-03-02T09:08:39;8.70;99.90
26262;DHT22;13988;52.446;13.280;2024-03-02T09:11:08;8.70;99.90
26262;DHT22;13988;52.446;13.280;2024-03-02T09:13:34;8.70;99.90
26262;DHT22;13988;52.446;13.280;2024-03-02T09:16:00;8.70;99.90
26262;DHT22;13988;52.446;13.280;2024-03-02T09:18:26;8.80;99.90
26262;DHT22;13988;52.446;13.280;2024-03-02T09:20:52;8.80;99.90
26262;DHT22;13988;52.446;13.280;2024-03-02T09:23:18;8.70;99.90
26262;DHT22;13988;52.446;13.280;2024-03-02T09:25:43;8.70;99.90
26262;DHT22;13988;52.446;13.280;2024-03-02T09:28:09;8.80;99.90
26262;DHT22;13988;52.446;13.280;2024-03-02T09:30:35;8.80;99.90
26262;DHT22;13988;52.446;13.280;2024-03-02T09:33:00;8.80;99.90
26262;DHT22;13988;52.446;13.280;2024-03-02T09:35:26;8.80;99.90
26262;DHT22;13988;52.446;13.280;2024-03-02T09:37:51;8.90;99.90
26262;DHT22;13988;52.446;13.280;2024-03-02T09:40:17;8.90;99.90
26262;DHT22;13988;52.446;13.280;2024-03-02T09:42:43;8.90;99.90
26262;DHT22;13988;52.446;13.280;2024-03-02T09:45:10;8.90;99.90
26262;DHT22;13988;52.446;13.280;2024-03-02T09:47:36;9.00;99.90
26262;DHT22;13988;52.446;13.280;2024-03-02T09:50:02;9.10;99.90
26262;DHT22;13988;52.446;13.280;2024-03-02T09:52:30;9.10;99.90
26262;DHT22;13988;52.446;13.280;2024-03-02T09:54:56;9.20;99.90
26262;DHT22;13988;52.446;13.280;2024-03-02T09:57:22;9.30;99.90
26262;DHT22;13988;52.446;13.280;2024-03-02T09:59:47;9.30;99.90
26262;DHT22;13988;52.446;13.280;2024-03-02T10:02:13;9.40;99.90
26262;DHT22;13988;52.446;13.280;2024-03-02T10:04:38;9.50;99.90
26262;DHT22;13988;52.446;13.280;2024-03-02T10:07:14;9.50;99.90
26262;DHT22;13988;52.446;13.280;2024-03-02T10:09:41;9.60;99.90
26262;DHT22;13988;52.446;13.280;2024-03-02T10:12:08;9.60;99.90
26262;DHT22;13988;52.446;13.280;2024-03-02T10:14:34;9.70;99.90
26262;DHT22;13988;52.446;13.280;2024-03-02T10:17:08;9.80;99.90
26262;DHT22;13988;52.446;13.280;2024-03-02T10:19:34;9.80;99.90
26262;DHT22;13988;52.446;13.280;2024-03-02T10:22:01;9.80;99.90
26262;DHT22;13988;52.446;13.280;2024-03-02T10:24:34;9.90;99.90
26262;DHT22;13988;52.446;13.280;2024-03-02T10:27:01;10.00;99.90
26262;DHT22;13988;52.446;13.280;2024-03-02T10:29:29;10.00;99.90
26262;DHT22;13988;52.446;13.280;2024-03-02T10:31:55;10.10;99.90
26262;DHT22;13988;52.446;13.280;2024-03-02T10:34:22;10.30;99.90
26262;DHT22;13988;52.446;13.280;2024-03-02T10:36:47;10.40;99.90
26262;DHT22;13988;52.446;13.280;2024-03-02T10:39:14;10.40;99.90
26262;DHT22;13988;52.446;13.280;2024-03-02T10:41:40;10.40;99.90
26262;DHT22;13988;52.446;13.280;2024-03-02T10:44:07;10.40;99.90
26262;DHT22;13988;52.446;13.280;2024-03-02T10:46:35;10.40;99.90
26262;DHT22;13988;52.446;13.280;2024-03-02T10:49:02;10.40;99.90
26262;DHT22;13988;52.446;13.280;2024-03-02T10:51:33;10.60;99.90
26262;DHT22;13988;52.446;13.280;2024-03-02T10:54:02;10.70;99.90
26262;DHT22;13988;52.446;13.280;2024-03-02T10:59:02;10.80;99.90
26262;DHT22;13988;52.446;13.280;2024-03-02T11:01:29;10.90;99.90
26262;DHT22;13988;52.446;13.280;2024-03-02T11:03:56;11.10;99.90
26262;DHT22;13988;52.446;13.280;2024-03-02T11:06:22;11.10;99.90
26262;DHT22;13988;52.446;13.280;2024-03-02T11:08:49;11.00;99.90
26262;DHT22;13988;52.446;13.280;2024-03-02T11:11:23;11.10;99.90
26262;DHT22;13988;52.446;13.280;2024-03-02T11:13:52;11.10;99.90
26262;DHT22;13988;52.446;13.280;2024-03-02T11:16:27;11.30;99.90
26262;DHT22;13988;52.446;13.280;2024-03-02T11:18:58;11.40;99.90
26262;DHT22;13988;52.446;13.280;2024-03-02T11:21:24;11.40;99.90
26262;DHT22;13988;52.446;13.280;2024-03-02T11:23:50;11.40;99.90
26262;DHT22;13988;52.446;13.280;2024-03-02T11:26:22;11.50;99.90
26262;DHT22;13988;52.446;13.280;2024-03-02T11:28:50;11.50;99.90
26262;DHT22;13988;52.446;13.280;2024-03-02T11:31:16;11.60;99.90
26262;DHT22;13988;52.446;13.280;2024-03-02T11:33:42;11.70;99.90
26262;DHT22;13988;52.446;13.280;2024-03-02T11:36:09;11.60;99.90
26262;DHT22;13988;52.446;13.280;2024-03-02T11:38:35;11.70;99.90
26262;DHT22;13988;52.446;13.280;2024-03-02T11:41:02;11.80;99.90
26262;DHT22;13988;52.446;13.280;2024-03-02T11:43:29;11.70;99.90
26262;DHT22;13988;52.446;13.280;2024-03-02T11:46:03;11.90;99.90
26262;DHT22;13988;52.446;13.280;2024-03-02T11:48:32;11.90;99.90
26262;DHT22;13988;52.446;13.280;2024-03-02T11:51:00;12.00;99.90
26262;DHT22;13988;52.446;13.280;2024-03-02T11:53:27;12.20;99.90
26262;DHT22;13988;52.446;13.280;2024-03-02T11:55:55;12.30;99.90
26262;DHT22;13988;52.446;13.280;2024-03-02T11:58:21;12.30;99.90
26262;DHT22;13988;52.446;13.280;2024-03-02T12:00:55;12.30;99.90
26262;DHT22;13988;52.446;13.280;2024-03-02T12:03:25;12.40;99.90
26262;DHT22;13988;52.446;13.280;2024-03-02T12:05:53;12.50;99.90
26262;DHT22;13988;52.446;13.280;2024-03-02T12:08:19;12.50;99.90
26262;DHT22;13988;52.446;13.280;2024-03-02T12:10:57;12.40;99.90
26262;DHT22;13988;52.446;13.280;2024-03-02T12:13:23;12.60;99.90
26262;DHT22;13988;52.446;13.280;2024-03-02T12:15:53;12.60;99.90
26262;DHT22;13988;52.446;13.280;2024-03-02T12:18:19;12.70;99.90
26262;DHT22;13988;52.446;13.280;2024-03-02T12:20:45;12.80;99.90
26262;DHT22;13988;52.446;13.280;2024-03-02T12:23:11;13.00;99.90
26262;DHT22;13988;52.446;13.280;2024-03-02T12:25:37;12.90;99.90
26262;DHT22;13988;52.446;13.280;2024-03-02T12:28:03;13.00;99.90
26262;DHT22;13988;52.446;13.280;2024-03-02T12:30:30;13.30;99.90
26262;DHT22;13988;52.446;13.280;2024-03-02T12:32:56;13.60;99.90
26262;DHT22;13988;52.446;13.280;2024-03-02T12:35:24;14.00;99.90
26262;DHT22;13988;52.446;13.280;2024-03-02T12:37:51;14.80;99.90
26262;DHT22;13988;52.446;13.280;2024-03-02T12:40:18;15.10;99.90
26262;DHT22;13988;52.446;13.280;2024-03-02T12:42:45;14.80;99.90
26262;DHT22;13988;52.446;13.280;2024-03-02T12:45:12;14.80;99.90
26262;DHT22;13988;52.446;13.280;2024-03-02T12:47:39;15.10;99.90
26262;DHT22;13988;52.446;13.280;2024-03-02T12:50:06;16.00;99.90
26262;DHT22;13988;52.446;13.280;2024-03-02T12:52:32;15.90;99.90
26262;DHT22;13988;52.446;13.280;2024-03-02T12:55:01;16.10;99.90
26262;DHT22;13988;52.446;13.280;2024-03-02T12:57:30;16.70;99.90
26262;DHT22;13988;52.446;13.280;2024-03-02T13:00:00;17.00;99.90
26262;DHT22;13988;52.446;13.280;2024-03-02T13:02:30;16.70;99.90
26262;DHT22;13988;52.446;13.280;2024-03-02T13:04:57;16.50;99.90
26262;DHT22;13988;52.446;13.280;2024-03-02T13:07:26;16.40;99.90
26262;DHT22;13988;52.446;13.280;2024-03-02T13:09:53;15.90;99.90
26262;DHT22;13988;52.446;13.280;2024-03-02T13:12:21;15.60;99.90
26262;DHT22;13988;52.446;13.280;2024-03-02T13:14:53;15.00;99.90
26262;DHT22;13988;52.446;13.280;2024-03-02T13:17:19;14.30;99.90
26262;DHT22;13988;52.446;13.280;2024-03-02T13:20:11;13.90;99.90
26262;DHT22;13988;52.446;13.280;2024-03-02T13:22:39;13.80;99.90
26262;DHT22;13988;52.446;13.280;2024-03-02T13:25:05;13.90;99.90
26262;DHT22;13988;52.446;13.280;2024-03-02T13:27:31;14.00;99.90
26262;DHT22;13988;52.446;13.280;2024-03-02T13:29:57;14.10;99.90
26262;DHT22;13988;52.446;13.280;2024-03-02T13:32:24;14.00;99.90
26262;DHT22;13988;52.446;13.280;2024-03-02T13:34:51;13.90;99.90
26262;DHT22;13988;52.446;13.280;2024-03-02T13:37:17;14.00;99.90
26262;DHT22;13988;52.446;13.280;2024-03-02T13:39:42;15.00;99.90
26262;DHT22;13988;52.446;13.280;2024-03-02T13:42:12;15.50;99.90
26262;DHT22;13988;52.446;13.280;2024-03-02T13:44:39;15.30;99.90
26262;DHT22;13988;52.446;13.280;2024-03-02T13:47:05;14.50;99.90
26262;DHT22;13988;52.446;13.280;2024-03-02T13:49:31;14.40;99.90
26262;DHT22;13988;52.446;13.280;2024-03-02T13:52:05;14.00;99.90
26262;DHT22;13988;52.446;13.280;2024-03-02T13:54:41;14.20;99.90
26262;DHT22;13988;52.446;13.280;2024-03-02T13:57:08;14.00;99.90
26262;DHT22;13988;52.446;13.280;2024-03-02T13:59:34;14.00;99.90
26262;DHT22;13988;52.446;13.280;2024-03-02T14:02:01;14.20;99.90
26262;DHT22;13988;52.446;13.280;2024-03-02T14:04:27;14.10;99.90
26262;DHT22;13988;52.446;13.280;2024-03-02T14:06:53;13.70;99.90
26262;DHT22;13988;52.446;13.280;2024-03-02T14:09:19;13.60;99.90
26262;DHT22;13988;52.446;13.280;2024-03-02T14:11:46;13.60;99.90
26262;DHT22;13988;52.446;13.280;2024-03-02T14:14:11;13.70;99.90
26262;DHT22;13988;52.446;13.280;2024-03-02T14:16:37;13.80;99.90
26262;DHT22;13988;52.446;13.280;2024-03-02T14:19:03;13.90;99.90
26262;DHT22;13988;52.446;13.280;2024-03-02T14:21:30;13.80;99.90
26262;DHT22;13988;52.446;13.280;2024-03-02T14:23:56;13.80;99.90
26262;DHT22;13988;52.446;13.280;2024-03-02T14:26:21;13.70;99.90
26262;DHT22;13988;52.446;13.280;2024-03-02T14:28:47;13.40;99.90
26262;DHT22;13988;52.446;13.280;2024-03-02T14:31:13;13.40;99.90
26262;DHT22;13988;52.446;13.280;2024-03-02T14:33:38;13.20;99.90
26262;DHT22;13988;52.446;13.280;2024-03-02T14:36:05;13.20;99.90
26262;DHT22;13988;52.446;13.280;2024-03-02T14:38:30;13.20;99.90
26262;DHT22;13988;52.446;13.280;2024-03-02T14:40:56;13.20;99.90
26262;DHT22;13988;52.446;13.280;2024-03-02T14:43:22;13.20;99.90
26262;DHT22;13988;52.446;13.280;2024-03-02T14:45:48;13.10;99.90
26262;DHT22;13988;52.446;13.280;2024-03-02T14:48:14;13.00;99.90
26262;DHT22;13988;52.446;13.280;2024-03-02T14:50:40;13.10;99.90
26262;DHT22;13988;52.446;13.280;2024-03-02T14:53:05;13.20;99.90
26262;DHT22;13988;52.446;13.280;2024-03-02T14:55:33;13.10;99.90
26262;DHT22;13988;52.446;13.280;2024-03-02T14:57:59;13.00;99.90
26262;DHT22;13988;52.446;13.280;2024-03-02T15:00:25;13.00;99.90
26262;DHT22;13988;52.446;13.280;2024-03-02T15:02:51;13.00;99.90
26262;DHT22;13988;52.446;13.280;2024-03-02T15:05:18;13.00;99.90
26262;DHT22;13988;52.446;13.280;2024-03-02T15:07:43;13.10;99.90
26262;DHT22;13988;52.446;13.280;2024-03-02T15:10:09;13.30;99.90
26262;DHT22;13988;52.446;13.280;2024-03-02T15:12:35;13.50;99.90
26262;DHT22;13988;52.446;13.280;2024-03-02T15:15:01;13.80;99.90
26262;DHT22;13988;52.446;13.280;2024-03-02T15:17:26;14.00;99.90
26262;DHT22;13988;52.446;13.280;2024-03-02T15:19:52;13.90;99.90
26262;DHT22;13988;52.446;13.280;2024-03-02T15:22:18;13.80;99.90
26262;DHT22;13988;52.446;13.280;2024-03-02T15:24:43;13.60;99.90
26262;DHT22;13988;52.446;13.280;2024-03-02T15:27:09;13.60;99.90